Aviation Digital Data Service (ADDS)

Output produced by METARs form (1153 UTC 11 December 2016)
found at http://aviationweather.gov/adds/metars/
 
KPIT 111140Z 1112/1218 17003KT 2SM -SN OVC025 
     FM111500 13006KT P6SM -SN OVC050 
     FM120200 14007KT 3SM -RASN OVC025 
     FM120700 19008KT 5SM -RA OVC015 
     FM121500 25008KT P6SM OVC010